sensor_id;sensor_type;location;lat;lon;timestamp;P1;durP1;ratioP1;P2;durP2;ratioP2
9140;SDS011;46330;50.822;7.126;2024-03-07T00:00:07;24.38;;;14.70;;
9140;SDS011;46330;50.822;7.126;2024-03-07T00:02:43;25.17;;;14.00;;
9140;SDS011;46330;50.822;7.126;2024-03-07T00:05:14;25.25;;;14.88;;
9140;SDS011;46330;50.822;7.126;2024-03-07T00:07:43;25.52;;;14.30;;
9140;SDS011;46330;50.822;7.126;2024-03-07T00:10:11;25.00;;;14.68;;
9140;SDS011;46330;50.822;7.126;2024-03-07T00:12:39;26.58;;;14.43;;
9140;SDS011;46330;50.822;7.126;2024-03-07T00:15:10;27.98;;;15.48;;
9140;SDS011;46330;50.822;7.126;2024-03-07T00:17:39;28.83;;;15.20;;
9140;SDS011;46330;50.822;7.126;2024-03-07T00:20:09;24.80;;;15.07;;
9140;SDS011;46330;50.822;7.126;2024-03-07T00:22:41;27.60;;;15.27;;
9140;SDS011;46330;50.822;7.126;2024-03-07T00:25:10;24.50;;;14.57;;
9140;SDS011;46330;50.822;7.126;2024-03-07T00:27:39;25.10;;;13.90;;
9140;SDS011;46330;50.822;7.126;2024-03-07T00:30:08;25.90;;;15.00;;
9140;SDS011;46330;50.822;7.126;2024-03-07T00:32:39;24.90;;;13.90;;
9140;SDS011;46330;50.822;7.126;2024-03-07T00:35:08;25.00;;;14.35;;
9140;SDS011;46330;50.822;7.126;2024-03-07T00:37:36;25.60;;;14.50;;
9140;SDS011;46330;50.822;7.126;2024-03-07T00:40:04;24.83;;;13.95;;
9140;SDS011;46330;50.822;7.126;2024-03-07T00:42:34;25.17;;;14.43;;
9140;SDS011;46330;50.822;7.126;2024-03-07T00:45:02;25.92;;;14.38;;
9140;SDS011;46330;50.822;7.126;2024-03-07T00:47:32;26.17;;;14.13;;
9140;SDS011;46330;50.822;7.126;2024-03-07T00:50:00;28.38;;;14.80;;
9140;SDS011;46330;50.822;7.126;2024-03-07T00:52:28;25.77;;;14.48;;
9140;SDS011;46330;50.822;7.126;2024-03-07T00:54:56;30.13;;;15.23;;
9140;SDS011;46330;50.822;7.126;2024-03-07T00:57:24;25.60;;;14.45;;
9140;SDS011;46330;50.822;7.126;2024-03-07T00:59:52;24.98;;;13.50;;
9140;SDS011;46330;50.822;7.126;2024-03-07T01:02:20;27.33;;;15.23;;
9140;SDS011;46330;50.822;7.126;2024-03-07T01:04:49;26.13;;;14.73;;
9140;SDS011;46330;50.822;7.126;2024-03-07T01:07:17;24.92;;;14.40;;
9140;SDS011;46330;50.822;7.126;2024-03-07T01:09:45;25.48;;;15.27;;
9140;SDS011;46330;50.822;7.126;2024-03-07T01:12:13;30.80;;;15.80;;
9140;SDS011;46330;50.822;7.126;2024-03-07T01:14:41;31.65;;;15.65;;
9140;SDS011;46330;50.822;7.126;2024-03-07T01:17:09;37.00;;;17.27;;
9140;SDS011;46330;50.822;7.126;2024-03-07T01:19:38;33.47;;;17.30;;
9140;SDS011;46330;50.822;7.126;2024-03-07T01:22:07;32.08;;;17.35;;
9140;SDS011;46330;50.822;7.126;2024-03-07T01:24:35;33.90;;;17.00;;
9140;SDS011;46330;50.822;7.126;2024-03-07T01:27:03;33.80;;;19.08;;
9140;SDS011;46330;50.822;7.126;2024-03-07T01:29:31;35.70;;;18.70;;
9140;SDS011;46330;50.822;7.126;2024-03-07T01:31:59;31.08;;;17.17;;
9140;SDS011;46330;50.822;7.126;2024-03-07T01:34:27;34.70;;;16.63;;
9140;SDS011;46330;50.822;7.126;2024-03-07T01:36:55;33.33;;;16.92;;
9140;SDS011;46330;50.822;7.126;2024-03-07T01:39:24;30.20;;;16.42;;
9140;SDS011;46330;50.822;7.126;2024-03-07T01:41:52;35.10;;;17.33;;
9140;SDS011;46330;50.822;7.126;2024-03-07T01:44:20;30.98;;;16.48;;
9140;SDS011;46330;50.822;7.126;2024-03-07T01:46:48;31.05;;;16.20;;
9140;SDS011;46330;50.822;7.126;2024-03-07T01:49:17;29.08;;;16.27;;
9140;SDS011;46330;50.822;7.126;2024-03-07T01:51:45;34.13;;;16.13;;
9140;SDS011;46330;50.822;7.126;2024-03-07T01:54:14;32.15;;;16.38;;
9140;SDS011;46330;50.822;7.126;2024-03-07T01:56:44;32.55;;;16.80;;
9140;SDS011;46330;50.822;7.126;2024-03-07T01:59:12;35.78;;;16.60;;
9140;SDS011;46330;50.822;7.126;2024-03-07T02:01:40;34.88;;;17.13;;
9140;SDS011;46330;50.822;7.126;2024-03-07T02:04:09;32.70;;;16.15;;
9140;SDS011;46330;50.822;7.126;2024-03-07T02:06:37;32.90;;;16.00;;
9140;SDS011;46330;50.822;7.126;2024-03-07T02:09:05;34.33;;;15.95;;
9140;SDS011;46330;50.822;7.126;2024-03-07T02:11:34;32.70;;;16.35;;
9140;SDS011;46330;50.822;7.126;2024-03-07T02:14:03;32.35;;;15.75;;
9140;SDS011;46330;50.822;7.126;2024-03-07T02:16:31;31.83;;;16.27;;
9140;SDS011;46330;50.822;7.126;2024-03-07T02:18:59;28.85;;;15.52;;
9140;SDS011;46330;50.822;7.126;2024-03-07T02:21:29;28.80;;;15.35;;
9140;SDS011;46330;50.822;7.126;2024-03-07T02:23:57;31.92;;;15.50;;
9140;SDS011;46330;50.822;7.126;2024-03-07T02:26:25;32.30;;;16.98;;
9140;SDS011;46330;50.822;7.126;2024-03-07T02:28:53;28.88;;;15.07;;
9140;SDS011;46330;50.822;7.126;2024-03-07T02:31:21;27.42;;;15.13;;
9140;SDS011;46330;50.822;7.126;2024-03-07T02:34:02;28.27;;;14.93;;
9140;SDS011;46330;50.822;7.126;2024-03-07T02:36:31;31.40;;;15.45;;
9140;SDS011;46330;50.822;7.126;2024-03-07T02:38:59;27.55;;;15.32;;
9140;SDS011;46330;50.822;7.126;2024-03-07T02:41:27;32.80;;;15.32;;
9140;SDS011;46330;50.822;7.126;2024-03-07T02:43:55;31.98;;;16.05;;
9140;SDS011;46330;50.822;7.126;2024-03-07T02:46:24;31.08;;;15.25;;
9140;SDS011;46330;50.822;7.126;2024-03-07T02:48:51;32.35;;;16.25;;
9140;SDS011;46330;50.822;7.126;2024-03-07T02:51:20;32.03;;;16.10;;
9140;SDS011;46330;50.822;7.126;2024-03-07T02:53:49;29.20;;;16.40;;
9140;SDS011;46330;50.822;7.126;2024-03-07T02:56:17;32.60;;;15.90;;
9140;SDS011;46330;50.822;7.126;2024-03-07T02:58:45;28.90;;;15.35;;
9140;SDS011;46330;50.822;7.126;2024-03-07T03:01:13;29.88;;;15.45;;
9140;SDS011;46330;50.822;7.126;2024-03-07T03:03:41;31.55;;;16.30;;
9140;SDS011;46330;50.822;7.126;2024-03-07T03:06:09;35.28;;;16.08;;
9140;SDS011;46330;50.822;7.126;2024-03-07T03:08:37;34.50;;;17.42;;
9140;SDS011;46330;50.822;7.126;2024-03-07T03:11:06;32.35;;;15.27;;
9140;SDS011;46330;50.822;7.126;2024-03-07T03:13:37;37.60;;;16.85;;
9140;SDS011;46330;50.822;7.126;2024-03-07T03:16:06;32.25;;;16.48;;
9140;SDS011;46330;50.822;7.126;2024-03-07T03:18:34;36.33;;;16.30;;
9140;SDS011;46330;50.822;7.126;2024-03-07T03:21:03;33.00;;;16.42;;
9140;SDS011;46330;50.822;7.126;2024-03-07T03:23:31;39.13;;;20.58;;
9140;SDS011;46330;50.822;7.126;2024-03-07T03:25:59;47.78;;;22.63;;
9140;SDS011;46330;50.822;7.126;2024-03-07T03:28:29;36.20;;;17.50;;
9140;SDS011;46330;50.822;7.126;2024-03-07T03:30:57;32.65;;;16.77;;
9140;SDS011;46330;50.822;7.126;2024-03-07T03:33:25;33.30;;;16.08;;
9140;SDS011;46330;50.822;7.126;2024-03-07T03:35:53;29.25;;;15.43;;
9140;SDS011;46330;50.822;7.126;2024-03-07T03:38:21;34.10;;;15.50;;
9140;SDS011;46330;50.822;7.126;2024-03-07T03:40:50;44.30;;;21.65;;
9140;SDS011;46330;50.822;7.126;2024-03-07T03:43:18;33.35;;;17.30;;
9140;SDS011;46330;50.822;7.126;2024-03-07T03:45:47;30.38;;;15.57;;
9140;SDS011;46330;50.822;7.126;2024-03-07T03:48:15;33.65;;;15.80;;
9140;SDS011;46330;50.822;7.126;2024-03-07T03:50:43;31.17;;;15.48;;
9140;SDS011;46330;50.822;7.126;2024-03-07T03:53:13;30.10;;;15.80;;
9140;SDS011;46330;50.822;7.126;2024-03-07T03:55:41;32.50;;;16.20;;
9140;SDS011;46330;50.822;7.126;2024-03-07T03:58:09;29.15;;;15.02;;
9140;SDS011;46330;50.822;7.126;2024-03-07T04:00:37;27.40;;;14.65;;
9140;SDS011;46330;50.822;7.126;2024-03-07T04:03:07;34.35;;;15.45;;
9140;SDS011;46330;50.822;7.126;2024-03-07T04:05:35;29.77;;;14.95;;
9140;SDS011;46330;50.822;7.126;2024-03-07T04:08:03;32.10;;;16.15;;
9140;SDS011;46330;50.822;7.126;2024-03-07T04:10:31;35.65;;;16.27;;
9140;SDS011;46330;50.822;7.126;2024-03-07T04:12:59;34.05;;;15.77;;
9140;SDS011;46330;50.822;7.126;2024-03-07T04:15:27;27.75;;;14.63;;
9140;SDS011;46330;50.822;7.126;2024-03-07T04:18:01;32.65;;;15.88;;
9140;SDS011;46330;50.822;7.126;2024-03-07T04:20:31;29.45;;;14.63;;
9140;SDS011;46330;50.822;7.126;2024-03-07T04:22:59;32.05;;;14.18;;
9140;SDS011;46330;50.822;7.126;2024-03-07T04:25:28;26.77;;;14.23;;
9140;SDS011;46330;50.822;7.126;2024-03-07T04:27:57;31.05;;;14.88;;
9140;SDS011;46330;50.822;7.126;2024-03-07T04:30:26;33.97;;;15.63;;
9140;SDS011;46330;50.822;7.126;2024-03-07T04:32:54;31.05;;;14.70;;
9140;SDS011;46330;50.822;7.126;2024-03-07T04:35:22;31.23;;;15.45;;
9140;SDS011;46330;50.822;7.126;2024-03-07T04:37:51;32.90;;;15.25;;
9140;SDS011;46330;50.822;7.126;2024-03-07T04:40:19;32.80;;;16.52;;
9140;SDS011;46330;50.822;7.126;2024-03-07T04:42:49;34.33;;;16.27;;
9140;SDS011;46330;50.822;7.126;2024-03-07T04:45:17;31.40;;;15.15;;
9140;SDS011;46330;50.822;7.126;2024-03-07T04:47:46;32.03;;;15.32;;
9140;SDS011;46330;50.822;7.126;2024-03-07T04:50:16;37.63;;;15.85;;
9140;SDS011;46330;50.822;7.126;2024-03-07T04:52:46;36.67;;;16.35;;
9140;SDS011;46330;50.822;7.126;2024-03-07T04:55:17;31.23;;;15.82;;
9140;SDS011;46330;50.822;7.126;2024-03-07T04:57:45;34.45;;;15.77;;
9140;SDS011;46330;50.822;7.126;2024-03-07T05:00:14;35.72;;;16.35;;
9140;SDS011;46330;50.822;7.126;2024-03-07T05:02:47;30.08;;;15.57;;
9140;SDS011;46330;50.822;7.126;2024-03-07T05:05:17;28.20;;;14.27;;
9140;SDS011;46330;50.822;7.126;2024-03-07T05:07:49;31.90;;;15.27;;
9140;SDS011;46330;50.822;7.126;2024-03-07T05:10:20;32.10;;;15.40;;
9140;SDS011;46330;50.822;7.126;2024-03-07T05:12:48;32.63;;;16.33;;
9140;SDS011;46330;50.822;7.126;2024-03-07T05:15:16;29.15;;;14.57;;
9140;SDS011;46330;50.822;7.126;2024-03-07T05:17:44;30.17;;;14.60;;
9140;SDS011;46330;50.822;7.126;2024-03-07T05:20:13;30.60;;;14.63;;
9140;SDS011;46330;50.822;7.126;2024-03-07T05:22:41;32.28;;;16.33;;
9140;SDS011;46330;50.822;7.126;2024-03-07T05:25:13;32.80;;;16.02;;
9140;SDS011;46330;50.822;7.126;2024-03-07T05:27:44;30.30;;;15.75;;
9140;SDS011;46330;50.822;7.126;2024-03-07T05:30:12;31.20;;;15.82;;
9140;SDS011;46330;50.822;7.126;2024-03-07T05:32:42;32.67;;;15.85;;
9140;SDS011;46330;50.822;7.126;2024-03-07T05:35:11;30.38;;;14.77;;
9140;SDS011;46330;50.822;7.126;2024-03-07T05:37:39;33.53;;;15.80;;
9140;SDS011;46330;50.822;7.126;2024-03-07T05:40:13;32.50;;;14.85;;
9140;SDS011;46330;50.822;7.126;2024-03-07T05:42:41;32.72;;;16.15;;
9140;SDS011;46330;50.822;7.126;2024-03-07T05:45:11;34.47;;;16.40;;
9140;SDS011;46330;50.822;7.126;2024-03-07T05:47:41;31.58;;;14.55;;
9140;SDS011;46330;50.822;7.126;2024-03-07T05:50:09;33.88;;;16.67;;
9140;SDS011;46330;50.822;7.126;2024-03-07T05:52:40;31.40;;;15.48;;
9140;SDS011;46330;50.822;7.126;2024-03-07T05:55:08;33.40;;;16.20;;
9140;SDS011;46330;50.822;7.126;2024-03-07T05:57:37;31.48;;;15.07;;
9140;SDS011;46330;50.822;7.126;2024-03-07T06:00:12;31.17;;;16.20;;
9140;SDS011;46330;50.822;7.126;2024-03-07T06:02:42;31.17;;;15.55;;
9140;SDS011;46330;50.822;7.126;2024-03-07T06:05:10;32.78;;;16.33;;
9140;SDS011;46330;50.822;7.126;2024-03-07T06:07:42;33.83;;;15.85;;
9140;SDS011;46330;50.822;7.126;2024-03-07T06:10:12;31.75;;;15.30;;
9140;SDS011;46330;50.822;7.126;2024-03-07T06:12:43;31.77;;;15.52;;
9140;SDS011;46330;50.822;7.126;2024-03-07T06:15:32;31.20;;;15.40;;
9140;SDS011;46330;50.822;7.126;2024-03-07T06:18:01;33.92;;;15.68;;
9140;SDS011;46330;50.822;7.126;2024-03-07T06:20:29;32.35;;;15.50;;
9140;SDS011;46330;50.822;7.126;2024-03-07T06:22:56;33.83;;;16.48;;
9140;SDS011;46330;50.822;7.126;2024-03-07T06:25:25;32.35;;;15.85;;
9140;SDS011;46330;50.822;7.126;2024-03-07T06:28:03;31.33;;;14.90;;
9140;SDS011;46330;50.822;7.126;2024-03-07T06:30:39;28.35;;;15.57;;
9140;SDS011;46330;50.822;7.126;2024-03-07T06:33:09;29.42;;;15.68;;
9140;SDS011;46330;50.822;7.126;2024-03-07T06:35:37;31.95;;;15.82;;
9140;SDS011;46330;50.822;7.126;2024-03-07T06:38:06;33.38;;;16.13;;
9140;SDS011;46330;50.822;7.126;2024-03-07T06:40:35;31.33;;;15.98;;
9140;SDS011;46330;50.822;7.126;2024-03-07T06:43:03;28.65;;;15.75;;
9140;SDS011;46330;50.822;7.126;2024-03-07T06:45:33;31.75;;;15.55;;
9140;SDS011;46330;50.822;7.126;2024-03-07T06:48:03;33.95;;;16.35;;
9140;SDS011;46330;50.822;7.126;2024-03-07T06:50:33;31.23;;;16.40;;
9140;SDS011;46330;50.822;7.126;2024-03-07T06:53:04;34.17;;;16.00;;
9140;SDS011;46330;50.822;7.126;2024-03-07T06:55:35;32.03;;;16.15;;
9140;SDS011;46330;50.822;7.126;2024-03-07T06:58:04;33.90;;;15.63;;
9140;SDS011;46330;50.822;7.126;2024-03-07T07:00:32;33.88;;;16.27;;
9140;SDS011;46330;50.822;7.126;2024-03-07T07:03:05;29.88;;;16.38;;
9140;SDS011;46330;50.822;7.126;2024-03-07T07:05:33;27.02;;;14.52;;
9140;SDS011;46330;50.822;7.126;2024-03-07T07:08:02;29.02;;;14.80;;
9140;SDS011;46330;50.822;7.126;2024-03-07T07:10:32;32.70;;;14.23;;
9140;SDS011;46330;50.822;7.126;2024-03-07T07:13:00;26.73;;;15.50;;
9140;SDS011;46330;50.822;7.126;2024-03-07T07:15:28;27.20;;;14.90;;
9140;SDS011;46330;50.822;7.126;2024-03-07T07:17:56;28.25;;;15.00;;
9140;SDS011;46330;50.822;7.126;2024-03-07T07:20:25;28.05;;;15.98;;
9140;SDS011;46330;50.822;7.126;2024-03-07T07:22:53;25.70;;;14.77;;
9140;SDS011;46330;50.822;7.126;2024-03-07T07:25:23;25.17;;;14.73;;
9140;SDS011;46330;50.822;7.126;2024-03-07T07:27:53;28.25;;;14.40;;
9140;SDS011;46330;50.822;7.126;2024-03-07T07:30:22;26.10;;;15.32;;
9140;SDS011;46330;50.822;7.126;2024-03-07T07:32:52;28.13;;;15.75;;
9140;SDS011;46330;50.822;7.126;2024-03-07T07:35:21;26.15;;;15.70;;
9140;SDS011;46330;50.822;7.126;2024-03-07T07:37:51;25.85;;;15.52;;
9140;SDS011;46330;50.822;7.126;2024-03-07T07:40:22;24.52;;;14.48;;
9140;SDS011;46330;50.822;7.126;2024-03-07T07:42:53;27.65;;;15.25;;
9140;SDS011;46330;50.822;7.126;2024-03-07T07:45:22;21.77;;;14.07;;
9140;SDS011;46330;50.822;7.126;2024-03-07T07:47:51;22.60;;;13.48;;
9140;SDS011;46330;50.822;7.126;2024-03-07T07:50:20;24.85;;;14.55;;
9140;SDS011;46330;50.822;7.126;2024-03-07T07:52:51;21.15;;;13.60;;
9140;SDS011;46330;50.822;7.126;2024-03-07T07:55:21;19.73;;;12.95;;
9140;SDS011;46330;50.822;7.126;2024-03-07T07:57:51;21.13;;;13.02;;
9140;SDS011;46330;50.822;7.126;2024-03-07T08:00:21;22.98;;;13.45;;
9140;SDS011;46330;50.822;7.126;2024-03-07T08:02:50;25.15;;;14.13;;
9140;SDS011;46330;50.822;7.126;2024-03-07T08:05:21;23.50;;;13.82;;
9140;SDS011;46330;50.822;7.126;2024-03-07T08:07:52;21.27;;;12.93;;
9140;SDS011;46330;50.822;7.126;2024-03-07T08:10:21;20.80;;;12.90;;
9140;SDS011;46330;50.822;7.126;2024-03-07T08:12:51;24.38;;;13.73;;
9140;SDS011;46330;50.822;7.126;2024-03-07T08:15:19;21.17;;;13.65;;
9140;SDS011;46330;50.822;7.126;2024-03-07T08:17:48;22.67;;;13.75;;
9140;SDS011;46330;50.822;7.126;2024-03-07T08:20:18;22.92;;;14.38;;
9140;SDS011;46330;50.822;7.126;2024-03-07T08:22:47;21.23;;;13.77;;
9140;SDS011;46330;50.822;7.126;2024-03-07T08:25:19;20.63;;;13.05;;
9140;SDS011;46330;50.822;7.126;2024-03-07T08:27:50;19.85;;;12.25;;
9140;SDS011;46330;50.822;7.126;2024-03-07T08:30:20;19.73;;;11.50;;
9140;SDS011;46330;50.822;7.126;2024-03-07T08:32:49;21.20;;;12.90;;
9140;SDS011;46330;50.822;7.126;2024-03-07T08:35:19;21.02;;;11.85;;
9140;SDS011;46330;50.822;7.126;2024-03-07T08:37:48;19.00;;;11.57;;
9140;SDS011;46330;50.822;7.126;2024-03-07T08:40:22;19.77;;;12.45;;
9140;SDS011;46330;50.822;7.126;2024-03-07T08:42:55;18.10;;;11.63;;
9140;SDS011;46330;50.822;7.126;2024-03-07T08:45:24;19.85;;;11.65;;
9140;SDS011;46330;50.822;7.126;2024-03-07T08:47:53;18.20;;;10.88;;
9140;SDS011;46330;50.822;7.126;2024-03-07T08:50:23;16.85;;;10.55;;
9140;SDS011;46330;50.822;7.126;2024-03-07T08:52:53;16.48;;;11.00;;
9140;SDS011;46330;50.822;7.126;2024-03-07T08:55:24;17.33;;;10.57;;
9140;SDS011;46330;50.822;7.126;2024-03-07T08:57:52;17.27;;;10.60;;
9140;SDS011;46330;50.822;7.126;2024-03-07T09:00:21;16.42;;;10.80;;
9140;SDS011;46330;50.822;7.126;2024-03-07T09:02:53;21.40;;;11.15;;
9140;SDS011;46330;50.822;7.126;2024-03-07T09:05:25;16.63;;;9.68;;
9140;SDS011;46330;50.822;7.126;2024-03-07T09:07:54;18.13;;;9.60;;
9140;SDS011;46330;50.822;7.126;2024-03-07T09:10:24;18.52;;;11.52;;
9140;SDS011;46330;50.822;7.126;2024-03-07T09:12:56;15.43;;;7.50;;
9140;SDS011;46330;50.822;7.126;2024-03-07T09:15:24;17.75;;;10.20;;
9140;SDS011;46330;50.822;7.126;2024-03-07T09:17:53;19.83;;;10.63;;
9140;SDS011;46330;50.822;7.126;2024-03-07T09:20:22;17.15;;;10.50;;
9140;SDS011;46330;50.822;7.126;2024-03-07T09:22:51;17.42;;;9.82;;
9140;SDS011;46330;50.822;7.126;2024-03-07T09:25:21;20.60;;;10.95;;
9140;SDS011;46330;50.822;7.126;2024-03-07T09:27:52;15.85;;;8.52;;
9140;SDS011;46330;50.822;7.126;2024-03-07T09:30:22;18.15;;;10.27;;
9140;SDS011;46330;50.822;7.126;2024-03-07T09:32:52;20.13;;;11.35;;
9140;SDS011;46330;50.822;7.126;2024-03-07T09:35:21;17.63;;;9.50;;
9140;SDS011;46330;50.822;7.126;2024-03-07T09:37:50;16.95;;;9.05;;
9140;SDS011;46330;50.822;7.126;2024-03-07T09:40:18;18.70;;;10.15;;
9140;SDS011;46330;50.822;7.126;2024-03-07T09:42:53;17.70;;;10.35;;
9140;SDS011;46330;50.822;7.126;2024-03-07T09:45:28;16.90;;;10.40;;
9140;SDS011;46330;50.822;7.126;2024-03-07T09:47:56;18.02;;;11.20;;
9140;SDS011;46330;50.822;7.126;2024-03-07T09:50:25;19.67;;;11.57;;
9140;SDS011;46330;50.822;7.126;2024-03-07T09:52:56;16.50;;;10.07;;
9140;SDS011;46330;50.822;7.126;2024-03-07T09:55:27;18.02;;;10.20;;
9140;SDS011;46330;50.822;7.126;2024-03-07T09:57:56;18.83;;;10.25;;
9140;SDS011;46330;50.822;7.126;2024-03-07T10:00:26;15.60;;;8.32;;
9140;SDS011;46330;50.822;7.126;2024-03-07T10:02:57;19.83;;;11.45;;
9140;SDS011;46330;50.822;7.126;2024-03-07T10:05:27;19.42;;;10.48;;
9140;SDS011;46330;50.822;7.126;2024-03-07T10:07:56;19.10;;;9.90;;
9140;SDS011;46330;50.822;7.126;2024-03-07T10:10:24;17.85;;;9.93;;
9140;SDS011;46330;50.822;7.126;2024-03-07T10:12:52;18.52;;;10.27;;
9140;SDS011;46330;50.822;7.126;2024-03-07T10:15:22;15.90;;;9.63;;
9140;SDS011;46330;50.822;7.126;2024-03-07T10:17:55;17.92;;;10.32;;
9140;SDS011;46330;50.822;7.126;2024-03-07T10:20:23;18.92;;;10.27;;
9140;SDS011;46330;50.822;7.126;2024-03-07T10:22:51;19.40;;;10.57;;
9140;SDS011;46330;50.822;7.126;2024-03-07T10:25:20;18.75;;;11.15;;
9140;SDS011;46330;50.822;7.126;2024-03-07T10:27:51;17.58;;;10.65;;
9140;SDS011;46330;50.822;7.126;2024-03-07T10:30:19;18.20;;;9.32;;
9140;SDS011;46330;50.822;7.126;2024-03-07T10:32:53;17.17;;;10.60;;
9140;SDS011;46330;50.822;7.126;2024-03-07T10:35:26;17.08;;;9.80;;
9140;SDS011;46330;50.822;7.126;2024-03-07T10:37:56;17.30;;;10.18;;
9140;SDS011;46330;50.822;7.126;2024-03-07T10:40:27;19.42;;;10.90;;
9140;SDS011;46330;50.822;7.126;2024-03-07T10:42:56;19.20;;;9.93;;
9140;SDS011;46330;50.822;7.126;2024-03-07T10:45:29;16.48;;;10.27;;
9140;SDS011;46330;50.822;7.126;2024-03-07T10:47:59;15.13;;;8.95;;
9140;SDS011;46330;50.822;7.126;2024-03-07T10:50:33;17.42;;;10.23;;
9140;SDS011;46330;50.822;7.126;2024-03-07T10:53:12;15.40;;;9.45;;
9140;SDS011;46330;50.822;7.126;2024-03-07T10:56:01;15.45;;;9.45;;
9140;SDS011;46330;50.822;7.126;2024-03-07T10:58:44;17.25;;;10.38;;
9140;SDS011;46330;50.822;7.126;2024-03-07T11:01:25;16.17;;;9.25;;
9140;SDS011;46330;50.822;7.126;2024-03-07T11:03:59;15.77;;;9.25;;
9140;SDS011;46330;50.822;7.126;2024-03-07T11:06:30;18.10;;;10.80;;
9140;SDS011;46330;50.822;7.126;2024-03-07T11:09:01;16.58;;;9.43;;
9140;SDS011;46330;50.822;7.126;2024-03-07T11:11:37;16.73;;;10.05;;
9140;SDS011;46330;50.822;7.126;2024-03-07T11:14:07;17.83;;;9.30;;
9140;SDS011;46330;50.822;7.126;2024-03-07T11:16:37;18.05;;;10.65;;
9140;SDS011;46330;50.822;7.126;2024-03-07T11:19:23;20.33;;;11.18;;
9140;SDS011;46330;50.822;7.126;2024-03-07T11:21:54;20.40;;;10.50;;
9140;SDS011;46330;50.822;7.126;2024-03-07T11:24:23;19.40;;;11.05;;
9140;SDS011;46330;50.822;7.126;2024-03-07T11:26:52;18.83;;;10.00;;
9140;SDS011;46330;50.822;7.126;2024-03-07T11:29:38;16.35;;;9.02;;
9140;SDS011;46330;50.822;7.126;2024-03-07T11:32:11;18.02;;;10.18;;
9140;SDS011;46330;50.822;7.126;2024-03-07T11:34:42;15.80;;;10.07;;
9140;SDS011;46330;50.822;7.126;2024-03-07T11:37:16;19.25;;;10.68;;
9140;SDS011;46330;50.822;7.126;2024-03-07T11:39:49;16.42;;;9.90;;
9140;SDS011;46330;50.822;7.126;2024-03-07T11:42:23;20.52;;;10.32;;
9140;SDS011;46330;50.822;7.126;2024-03-07T11:44:53;16.13;;;9.77;;
9140;SDS011;46330;50.822;7.126;2024-03-07T11:47:23;16.48;;;9.75;;
9140;SDS011;46330;50.822;7.126;2024-03-07T11:49:53;14.00;;;9.13;;
9140;SDS011;46330;50.822;7.126;2024-03-07T11:52:21;15.63;;;9.52;;
9140;SDS011;46330;50.822;7.126;2024-03-07T11:54:49;15.90;;;9.52;;
9140;SDS011;46330;50.822;7.126;2024-03-07T11:57:19;16.80;;;9.75;;
9140;SDS011;46330;50.822;7.126;2024-03-07T11:59:52;16.30;;;9.25;;
9140;SDS011;46330;50.822;7.126;2024-03-07T12:02:20;14.95;;;8.93;;
9140;SDS011;46330;50.822;7.126;2024-03-07T12:04:49;16.88;;;9.00;;
9140;SDS011;46330;50.822;7.126;2024-03-07T12:07:19;16.20;;;8.27;;
9140;SDS011;46330;50.822;7.126;2024-03-07T12:09:49;13.80;;;8.10;;
9140;SDS011;46330;50.822;7.126;2024-03-07T12:12:20;15.23;;;8.55;;
9140;SDS011;46330;50.822;7.126;2024-03-07T12:14:51;10.43;;;5.97;;
9140;SDS011;46330;50.822;7.126;2024-03-07T12:17:20;14.85;;;7.40;;
9140;SDS011;46330;50.822;7.126;2024-03-07T12:19:49;11.45;;;7.32;;
9140;SDS011;46330;50.822;7.126;2024-03-07T12:22:20;11.32;;;6.57;;
9140;SDS011;46330;50.822;7.126;2024-03-07T12:24:59;13.18;;;6.80;;
9140;SDS011;46330;50.822;7.126;2024-03-07T12:27:28;13.25;;;7.55;;
9140;SDS011;46330;50.822;7.126;2024-03-07T12:29:57;12.15;;;7.32;;
9140;SDS011;46330;50.822;7.126;2024-03-07T12:32:28;12.45;;;7.18;;
9140;SDS011;46330;50.822;7.126;2024-03-07T12:34:58;12.88;;;6.88;;
9140;SDS011;46330;50.822;7.126;2024-03-07T12:37:27;12.10;;;7.38;;
9140;SDS011;46330;50.822;7.126;2024-03-07T12:39:56;12.07;;;7.15;;
9140;SDS011;46330;50.822;7.126;2024-03-07T12:42:28;12.77;;;7.15;;
9140;SDS011;46330;50.822;7.126;2024-03-07T12:44:58;12.07;;;7.82;;
9140;SDS011;46330;50.822;7.126;2024-03-07T12:47:26;15.45;;;8.40;;
9140;SDS011;46330;50.822;7.126;2024-03-07T12:49:54;12.32;;;7.32;;
9140;SDS011;46330;50.822;7.126;2024-03-07T12:52:24;11.98;;;6.43;;
9140;SDS011;46330;50.822;7.126;2024-03-07T12:54:54;14.95;;;8.90;;
9140;SDS011;46330;50.822;7.126;2024-03-07T12:57:22;14.82;;;8.63;;
9140;SDS011;46330;50.822;7.126;2024-03-07T12:59:52;13.65;;;7.90;;
9140;SDS011;46330;50.822;7.126;2024-03-07T13:02:21;13.95;;;7.55;;
9140;SDS011;46330;50.822;7.126;2024-03-07T13:04:52;12.20;;;7.07;;
9140;SDS011;46330;50.822;7.126;2024-03-07T13:07:20;11.18;;;6.55;;
9140;SDS011;46330;50.822;7.126;2024-03-07T13:09:48;11.25;;;6.55;;
9140;SDS011;46330;50.822;7.126;2024-03-07T13:12:17;14.38;;;7.57;;
9140;SDS011;46330;50.822;7.126;2024-03-07T13:14:45;9.70;;;5.55;;
9140;SDS011;46330;50.822;7.126;2024-03-07T13:17:14;11.18;;;7.30;;
9140;SDS011;46330;50.822;7.126;2024-03-07T13:19:44;13.48;;;7.07;;
9140;SDS011;46330;50.822;7.126;2024-03-07T13:22:15;13.07;;;6.90;;
9140;SDS011;46330;50.822;7.126;2024-03-07T13:24:42;11.38;;;6.15;;
9140;SDS011;46330;50.822;7.126;2024-03-07T13:27:12;11.65;;;6.65;;
9140;SDS011;46330;50.822;7.126;2024-03-07T13:29:47;10.65;;;5.93;;
9140;SDS011;46330;50.822;7.126;2024-03-07T13:32:16;6.65;;;4.30;;
9140;SDS011;46330;50.822;7.126;2024-03-07T13:34:44;7.90;;;5.03;;
9140;SDS011;46330;50.822;7.126;2024-03-07T13:37:14;6.90;;;3.85;;
9140;SDS011;46330;50.822;7.126;2024-03-07T13:39:44;10.77;;;6.38;;
9140;SDS011;46330;50.822;7.126;2024-03-07T13:42:13;11.68;;;6.95;;
9140;SDS011;46330;50.822;7.126;2024-03-07T13:44:41;12.88;;;6.78;;
9140;SDS011;46330;50.822;7.126;2024-03-07T13:47:11;11.18;;;6.03;;
9140;SDS011;46330;50.822;7.126;2024-03-07T13:49:38;10.48;;;6.47;;
9140;SDS011;46330;50.822;7.126;2024-03-07T13:52:08;11.73;;;7.03;;
9140;SDS011;46330;50.822;7.126;2024-03-07T13:54:44;13.27;;;6.50;;
9140;SDS011;46330;50.822;7.126;2024-03-07T13:57:15;11.10;;;6.15;;
9140;SDS011;46330;50.822;7.126;2024-03-07T14:00:00;10.95;;;6.90;;
9140;SDS011;46330;50.822;7.126;2024-03-07T14:05:56;11.10;;;6.38;;
9140;SDS011;46330;50.822;7.126;2024-03-07T14:08:45;10.35;;;6.35;;
9140;SDS011;46330;50.822;7.126;2024-03-07T14:11:49;10.93;;;7.00;;
9140;SDS011;46330;50.822;7.126;2024-03-07T14:14:39;10.35;;;6.32;;
9140;SDS011;46330;50.822;7.126;2024-03-07T14:23:41;11.35;;;7.30;;
9140;SDS011;46330;50.822;7.126;2024-03-07T14:26:37;11.20;;;7.00;;
9140;SDS011;46330;50.822;7.126;2024-03-07T14:29:20;12.02;;;6.53;;
9140;SDS011;46330;50.822;7.126;2024-03-07T14:31:54;11.52;;;6.53;;
9140;SDS011;46330;50.822;7.126;2024-03-07T14:34:24;11.07;;;6.60;;
9140;SDS011;46330;50.822;7.126;2024-03-07T14:37:09;11.65;;;6.38;;
9140;SDS011;46330;50.822;7.126;2024-03-07T14:39:45;12.23;;;7.10;;
9140;SDS011;46330;50.822;7.126;2024-03-07T14:42:18;8.70;;;5.55;;
9140;SDS011;46330;50.822;7.126;2024-03-07T14:44:46;11.93;;;7.20;;
9140;SDS011;46330;50.822;7.126;2024-03-07T14:47:16;12.15;;;6.90;;
9140;SDS011;46330;50.822;7.126;2024-03-07T14:49:47;12.52;;;6.70;;
9140;SDS011;46330;50.822;7.126;2024-03-07T14:52:16;11.07;;;6.63;;
9140;SDS011;46330;50.822;7.126;2024-03-07T14:54:44;13.15;;;7.32;;
9140;SDS011;46330;50.822;7.126;2024-03-07T14:57:18;8.13;;;4.60;;
9140;SDS011;46330;50.822;7.126;2024-03-07T14:59:48;12.25;;;7.30;;
9140;SDS011;46330;50.822;7.126;2024-03-07T15:02:17;13.75;;;7.60;;
9140;SDS011;46330;50.822;7.126;2024-03-07T15:04:47;13.45;;;6.93;;